createdAt,value
2023-01-28T00:01:28.347Z,101911.95
2023-01-28T00:03:56.250Z,101905.50
2023-01-28T00:06:24.074Z,101902.66
2023-01-28T00:08:51.960Z,101900.70
2023-01-28T00:11:19.776Z,101898.73
2023-01-28T00:13:47.628Z,101910.27
2023-01-28T00:16:15.526Z,101886.93
2023-01-28T00:18:43.496Z,101890.30
2023-01-28T00:21:13.479Z,101882.98
2023-01-28T00:23:41.922Z,101886.41
2023-01-28T00:26:14.096Z,101887.81
2023-01-28T00:28:43.011Z,101889.22
2023-01-28T00:31:21.310Z,101882.45
2023-01-28T00:33:49.981Z,101890.63
2023-01-28T00:36:20.627Z,101892.88
2023-01-28T00:39:06.680Z,101883.30
2023-01-28T00:41:34.436Z,101890.63
2023-01-28T00:44:02.290Z,101886.41
2023-01-28T00:46:30.065Z,101885.52
2023-01-28T00:48:58.107Z,101892.26
2023-01-28T00:51:26.066Z,101889.22
2023-01-28T00:53:55.310Z,101897.88
2023-01-28T00:56:23.171Z,101902.40
2023-01-28T00:58:51.207Z,101898.51
2023-01-28T01:01:23.824Z,101898.51
2023-01-28T01:04:03.462Z,101891.41
2023-01-28T01:06:36.337Z,101889.45
2023-01-28T01:09:08.113Z,101898.73
2023-01-28T01:11:36.319Z,101889.97
2023-01-28T01:14:06.290Z,101901.52
2023-01-28T01:16:34.579Z,101901.52
2023-01-28T01:19:03.914Z,101899.26
2023-01-28T01:21:31.918Z,101899.03
2023-01-28T01:23:59.749Z,101895.37
2023-01-28T01:26:28.827Z,101907.17
2023-01-28T01:28:56.638Z,101896.22
2023-01-28T01:31:24.658Z,101903.28
2023-01-28T01:33:52.805Z,101898.51
2023-01-28T01:36:22.845Z,101899.35
2023-01-28T01:38:54.558Z,101899.59
2023-01-28T01:41:31.162Z,101901.84
2023-01-28T01:44:00.932Z,101895.07
2023-01-28T01:46:28.584Z,101899.03
2023-01-28T01:48:56.735Z,101908.90
2023-01-28T01:51:32.219Z,101908.54
2023-01-28T01:54:00.062Z,101913.09
2023-01-28T01:56:30.837Z,101920.90
2023-01-28T01:58:58.597Z,101913.31
2023-01-28T02:01:28.876Z,101912.47
2023-01-28T02:04:04.053Z,101913.09
2023-01-28T02:06:32.392Z,101910.83
2023-01-28T02:09:00.253Z,101914.16
2023-01-28T02:11:30.535Z,101916.45
2023-01-28T02:13:59.335Z,101912.23
2023-01-28T02:16:27.275Z,101915.28
2023-01-28T02:18:55.113Z,101922.38
2023-01-28T02:21:37.824Z,101916.12
2023-01-28T02:24:38.864Z,101929.63
2023-01-28T02:27:37.125Z,101919.23
2023-01-28T02:30:09.115Z,101925.71
2023-01-28T02:33:14.514Z,101927.90
2023-01-28T02:35:56.174Z,101932.45
2023-01-28T02:38:33.350Z,101927.05
2023-01-28T02:41:07.659Z,101925.38
2023-01-28T02:43:35.744Z,101922.90
2023-01-28T02:46:39.925Z,101917.24
2023-01-28T02:49:24.094Z,101922.38
2023-01-28T02:52:06.717Z,101924.01
2023-01-28T02:54:46.132Z,101925.94
2023-01-28T02:57:31.827Z,101912.99
2023-01-28T03:00:13.378Z,101921.20
2023-01-28T03:02:48.066Z,101919.73
2023-01-28T03:05:21.634Z,101917.77
2023-01-28T03:07:49.437Z,101923.38
2023-01-28T03:10:19.011Z,101915.57
2023-01-28T03:13:05.608Z,101922.05
2023-01-28T03:16:06.428Z,101924.56
2023-01-28T03:18:59.832Z,101921.20
2023-01-28T03:21:50.776Z,101911.29
2023-01-28T03:24:46.146Z,101916.09
2023-01-28T03:27:43.291Z,101920.58
2023-01-28T03:30:42.720Z,101925.94
2023-01-28T03:33:29.110Z,101918.38
2023-01-28T03:36:15.316Z,101928.00
2023-01-28T03:38:43.477Z,101922.90
2023-01-28T03:41:12.125Z,101928.23
2023-01-28T03:43:39.951Z,101934.73
2023-01-28T03:46:07.796Z,101931.56
2023-01-28T03:48:35.567Z,101925.38
2023-01-28T03:51:03.341Z,101927.05
2023-01-28T03:53:31.128Z,101931.56
2023-01-28T03:55:59.280Z,101937.19
2023-01-28T03:58:47.723Z,101934.63
2023-01-28T04:01:15.477Z,101932.97
2023-01-28T04:03:43.282Z,101939.44
2023-01-28T04:06:11.284Z,101940.26
2023-01-28T04:08:39.079Z,101937.19
2023-01-28T04:11:20.673Z,101936.11
2023-01-28T04:13:49.467Z,101936.34
2023-01-28T04:16:17.915Z,101940.00
2023-01-28T04:18:45.909Z,101933.52
2023-01-28T04:21:13.760Z,101940.62
2023-01-28T04:23:41.537Z,101936.95
2023-01-28T04:26:09.657Z,101936.11
2023-01-28T04:28:37.504Z,101938.91
2023-01-28T04:31:05.322Z,101944.77
2023-01-28T04:33:33.358Z,101941.11
2023-01-28T04:36:01.153Z,101944.54
2023-01-28T04:38:28.978Z,101944.54
2023-01-28T04:40:56.834Z,101950.72
2023-01-28T04:43:24.784Z,101942.28
2023-01-28T04:45:52.774Z,101951.87
2023-01-28T04:48:20.553Z,101955.52
2023-01-28T04:50:48.323Z,101963.63
2023-01-28T04:53:16.161Z,101957.49
2023-01-28T04:55:43.905Z,101952.13
2023-01-28T04:58:11.755Z,101952.98
2023-01-28T05:00:39.542Z,101960.82
2023-01-28T05:03:07.303Z,101958.60
2023-01-28T05:05:35.047Z,101957.75
2023-01-28T05:08:02.780Z,101964.45
2023-01-28T05:10:30.594Z,101964.45
2023-01-28T05:12:58.409Z,101974.36
2023-01-28T05:15:26.304Z,101971.55
2023-01-28T05:17:57.033Z,101983.38
2023-01-28T05:20:25.230Z,101986.46
2023-01-28T05:22:53.300Z,101988.19
2023-01-28T05:25:21.050Z,101985.09
2023-01-28T05:27:54.725Z,101992.67
2023-01-28T05:30:22.823Z,101989.01
2023-01-28T05:32:50.862Z,101994.37
2023-01-28T05:35:18.940Z,102004.77
2023-01-28T05:37:46.819Z,101996.33
2023-01-28T05:40:15.087Z,101995.22
2023-01-28T05:42:43.158Z,101993.52
2023-01-28T05:45:11.357Z,101993.52
2023-01-28T05:47:39.594Z,102000.29
2023-01-28T05:50:08.098Z,101998.03
2023-01-28T05:52:35.830Z,101996.33
2023-01-28T05:55:04.277Z,102005.62
2023-01-28T05:57:32.052Z,102006.77
2023-01-28T05:59:59.917Z,102008.95
2023-01-28T06:02:27.799Z,102021.05
2023-01-28T06:04:55.716Z,102003.10
2023-01-28T06:07:25.129Z,102011.77
2023-01-28T06:09:53.004Z,102006.41
2023-01-28T06:12:20.802Z,102015.43
2023-01-28T06:14:48.650Z,102017.39
2023-01-28T06:17:16.543Z,102026.45
2023-01-28T06:19:45.096Z,102031.74
2023-01-28T06:22:12.857Z,102025.82
2023-01-28T06:24:40.687Z,102033.77
2023-01-28T06:27:08.552Z,102034.62
2023-01-28T06:29:36.728Z,102033.51
2023-01-28T06:32:04.752Z,102026.45
2023-01-28T06:34:32.605Z,102035.41
2023-01-28T06:37:00.482Z,102036.22
2023-01-28T06:39:29.426Z,102034.03
2023-01-28T06:41:57.301Z,102029.26
2023-01-28T06:44:25.055Z,102028.41
2023-01-28T06:46:52.883Z,102035.11
2023-01-28T06:49:21.750Z,102031.45
2023-01-28T06:51:49.733Z,102035.11
2023-01-28T06:54:17.533Z,102046.13
2023-01-28T06:56:45.492Z,102044.16
2023-01-28T06:59:13.294Z,102045.28
2023-01-28T07:01:41.194Z,102045.80
2023-01-28T07:04:09.866Z,102048.32
2023-01-28T07:06:37.627Z,102045.28
2023-01-28T07:09:05.389Z,102049.79
2023-01-28T07:11:33.386Z,102047.30
2023-01-28T07:14:01.251Z,102047.50
2023-01-28T07:16:28.995Z,102055.41
2023-01-28T07:18:56.775Z,102056.27
2023-01-28T07:21:24.567Z,102062.73
2023-01-28T07:23:52.438Z,102059.70
2023-01-28T07:26:21.296Z,102057.48
2023-01-28T07:28:49.099Z,102062.84
2023-01-28T07:31:17.052Z,102060.87
2023-01-28T07:33:44.932Z,102071.04
2023-01-28T07:36:12.690Z,102069.90
2023-01-28T07:38:40.570Z,102072.45
2023-01-28T07:41:08.547Z,102066.59
2023-01-28T07:43:36.328Z,102077.84
2023-01-28T07:46:04.124Z,102080.66
2023-01-28T07:48:32.145Z,102076.14
2023-01-28T07:51:00.442Z,102082.62
2023-01-28T07:53:28.319Z,102087.13
2023-01-28T07:56:03.033Z,102091.64
2023-01-28T07:58:30.790Z,102085.43
2023-01-28T08:01:00.004Z,102086.61
2023-01-28T08:03:28.182Z,102088.93
2023-01-28T08:05:57.367Z,102099.06
2023-01-28T08:08:25.777Z,102089.78
2023-01-28T08:10:53.810Z,102097.04
2023-01-28T08:13:21.657Z,102105.18
2023-01-28T08:15:49.487Z,102105.18
2023-01-28T08:18:17.609Z,102115.61
2023-01-28T08:20:46.589Z,102116.46
2023-01-28T08:23:23.105Z,102116.46
2023-01-28T08:25:51.115Z,102117.34
2023-01-28T08:28:18.898Z,102120.48
2023-01-28T08:30:46.843Z,102121.07
2023-01-28T08:33:18.690Z,102118.84
2023-01-28T08:35:46.589Z,102130.38
2023-01-28T08:38:14.996Z,102134.60
2023-01-28T08:40:42.780Z,102128.75
2023-01-28T08:43:10.704Z,102140.62
2023-01-28T08:45:38.526Z,102147.09
2023-01-28T08:48:06.886Z,102133.85
2023-01-28T08:50:36.965Z,102143.76
2023-01-28T08:53:12.861Z,102141.80
2023-01-28T08:55:40.650Z,102137.88
2023-01-28T08:58:11.110Z,102142.65
2023-01-28T09:00:39.076Z,102143.43
2023-01-28T09:03:07.109Z,102143.76
2023-01-28T09:05:38.520Z,102138.37
2023-01-28T09:08:11.076Z,102140.69
2023-01-28T09:10:39.043Z,102146.57
2023-01-28T09:13:07.842Z,102155.27
2023-01-28T09:15:35.995Z,102157.55
2023-01-28T09:18:03.760Z,102157.82
2023-01-28T09:20:36.177Z,102158.02
2023-01-28T09:23:04.363Z,102160.73
2023-01-28T09:25:32.181Z,102152.62
2023-01-28T09:28:00.288Z,102168.15
2023-01-28T09:30:28.297Z,102162.52
2023-01-28T09:32:56.742Z,102150.40
2023-01-28T09:35:24.578Z,102156.22
2023-01-28T09:37:53.203Z,102158.87
2023-01-28T09:40:48.203Z,102157.75
2023-01-28T09:43:39.296Z,102160.11
2023-01-28T09:46:07.167Z,102168.48
2023-01-28T09:48:55.187Z,102174.33
2023-01-28T09:51:33.837Z,102167.89
2023-01-28T09:54:07.734Z,102173.58
2023-01-28T09:56:42.411Z,102175.73
2023-01-28T09:59:21.061Z,102179.56
2023-01-28T10:01:56.221Z,102178.22
2023-01-28T10:04:56.338Z,102175.34
2023-01-28T10:07:36.401Z,102170.05
2023-01-28T10:10:26.706Z,102173.55
2023-01-28T10:13:03.606Z,102173.88
2023-01-28T10:15:54.996Z,102162.27
2023-01-28T10:18:55.288Z,102153.96
2023-01-28T10:21:40.512Z,102156.19
2023-01-28T10:24:29.303Z,102154.55
2023-01-28T10:26:57.264Z,102140.49
2023-01-28T10:29:32.785Z,102151.21
2023-01-28T10:32:01.278Z,102142.62
2023-01-28T10:34:29.103Z,102157.27
2023-01-28T10:36:58.150Z,102160.53
2023-01-28T10:39:26.725Z,102151.28
2023-01-28T10:41:58.851Z,102148.83
2023-01-28T10:44:52.323Z,102143.98
2023-01-28T10:47:30.870Z,102144.97
2023-01-28T10:50:00.947Z,102151.77
2023-01-28T10:52:28.963Z,102150.30
2023-01-28T10:55:06.937Z,102145.95
2023-01-28T10:57:35.484Z,102142.59
2023-01-28T11:00:21.537Z,102151.51
2023-01-28T11:02:49.948Z,102150.82
2023-01-28T11:05:26.981Z,102152.69
2023-01-28T11:08:27.833Z,102148.11
2023-01-28T11:10:56.236Z,102148.56
2023-01-28T11:13:28.580Z,102154.71
2023-01-28T11:16:07.069Z,102149.28
2023-01-28T11:18:36.757Z,102152.09
2023-01-28T11:21:06.268Z,102156.02
2023-01-28T11:23:43.160Z,102154.81
2023-01-28T11:26:28.367Z,102162.95
2023-01-28T11:28:56.170Z,102157.23
2023-01-28T11:31:25.371Z,102157.75
2023-01-28T11:34:00.985Z,102146.15
2023-01-28T11:36:33.484Z,102150.95
2023-01-28T11:39:03.478Z,102149.52
2023-01-28T11:41:33.342Z,102146.08
2023-01-28T11:44:17.638Z,102147.16
2023-01-28T11:46:48.309Z,102151.70
2023-01-28T11:49:29.515Z,102154.19
2023-01-28T11:52:19.605Z,102152.95
2023-01-28T11:55:24.900Z,102143.04
2023-01-28T11:57:56.319Z,102155.50
2023-01-28T12:00:48.886Z,102152.69
2023-01-28T12:03:35.081Z,102143.04
2023-01-28T12:06:30.792Z,102149.84
2023-01-28T12:09:01.651Z,102146.18
2023-01-28T12:12:04.921Z,102148.14
2023-01-28T12:15:05.002Z,102146.70
2023-01-28T12:17:38.603Z,102139.90
2023-01-28T12:20:15.419Z,102131.95
2023-01-28T12:22:56.600Z,102144.09
2023-01-28T12:25:33.228Z,102137.84
2023-01-28T12:28:38.599Z,102133.07
2023-01-28T12:31:34.472Z,102135.65
2023-01-28T12:34:23.727Z,102135.36
2023-01-28T12:36:56.450Z,102131.70
2023-01-28T12:39:33.604Z,102140.98
2023-01-28T12:42:16.681Z,102146.90
2023-01-28T12:44:55.973Z,102144.94
2023-01-28T12:47:25.881Z,102136.47
2023-01-28T12:49:59.699Z,102139.31
2023-01-28T12:52:34.417Z,102138.98
2023-01-28T12:55:14.220Z,102146.84
2023-01-28T12:57:42.100Z,102139.51
2023-01-28T13:00:27.219Z,102145.13
2023-01-28T13:03:12.639Z,102136.08
2023-01-28T13:05:43.397Z,102144.02
2023-01-28T13:08:19.135Z,102141.99
2023-01-28T13:10:48.025Z,102139.51
2023-01-28T13:13:35.867Z,102147.95
2023-01-28T13:16:04.868Z,102143.17
2023-01-28T13:18:52.926Z,102148.14
2023-01-28T13:21:27.910Z,102140.03
2023-01-28T13:24:18.755Z,102151.34
2023-01-28T13:26:51.532Z,102136.17
2023-01-28T13:29:25.345Z,102156.45
2023-01-28T13:31:56.179Z,102152.78
2023-01-28T13:34:57.401Z,102159.88
2023-01-28T13:37:36.181Z,102148.89
2023-01-28T13:40:26.783Z,102151.54
2023-01-28T13:43:01.482Z,102165.93
2023-01-28T13:45:29.302Z,102157.13
2023-01-28T13:48:25.397Z,102169.82
2023-01-28T13:50:54.301Z,102172.40
2023-01-28T13:53:41.388Z,102174.62
2023-01-28T13:56:17.253Z,102177.37
2023-01-28T13:58:50.903Z,102178.02
2023-01-28T14:01:27.612Z,102182.30
2023-01-28T14:04:26.299Z,102181.46
2023-01-28T14:07:17.421Z,102189.24
2023-01-28T14:10:04.685Z,102190.94
2023-01-28T14:12:48.019Z,102186.07
2023-01-28T14:15:31.488Z,102185.74
2023-01-28T14:17:59.302Z,102194.44
2023-01-28T14:20:56.983Z,102199.51
2023-01-28T14:23:24.888Z,102201.53
2023-01-28T14:25:52.601Z,102198.72
2023-01-28T14:28:40.555Z,102201.86
2023-01-28T14:31:35.167Z,102199.57
2023-01-28T14:34:14.191Z,102199.84
2023-01-28T14:36:42.590Z,102201.01
2023-01-28T14:39:20.892Z,102210.07
2023-01-28T14:41:53.013Z,102215.43
2023-01-28T14:44:43.972Z,102215.10
2023-01-28T14:47:43.484Z,102206.34
2023-01-28T14:50:30.487Z,102210.59
2023-01-28T14:53:29.421Z,102211.96
2023-01-28T14:56:01.806Z,102216.21
2023-01-28T14:58:32.991Z,102217.06
2023-01-28T15:01:01.403Z,102218.41
2023-01-28T15:03:30.301Z,102221.77
2023-01-28T15:06:08.628Z,102229.13
2023-01-28T15:08:38.496Z,102225.73
2023-01-28T15:11:07.910Z,102237.08
2023-01-28T15:13:38.985Z,102234.85
2023-01-28T15:16:07.233Z,102246.10
2023-01-28T15:18:53.286Z,102242.73
2023-01-28T15:21:25.169Z,102241.00
2023-01-28T15:23:54.707Z,102242.73
2023-01-28T15:26:46.231Z,102244.66
2023-01-28T15:29:33.917Z,102242.44
2023-01-28T15:32:02.256Z,102240.21
2023-01-28T15:34:32.909Z,102248.35
2023-01-28T15:37:01.425Z,102244.34
2023-01-28T15:39:30.590Z,102244.34
2023-01-28T15:42:06.694Z,102243.16
2023-01-28T15:44:45.055Z,102244.34
2023-01-28T15:47:21.488Z,102257.22
2023-01-28T15:49:51.393Z,102262.88
2023-01-28T15:52:19.357Z,102264.84
2023-01-28T15:54:52.389Z,102269.61
2023-01-28T15:57:38.891Z,102269.12
2023-01-28T16:00:16.708Z,102271.30
2023-01-28T16:02:46.175Z,102274.15
2023-01-28T16:05:26.906Z,102282.26
2023-01-28T16:07:55.061Z,102290.96
2023-01-28T16:10:26.235Z,102283.96
2023-01-28T16:12:56.006Z,102297.20
2023-01-28T16:15:23.974Z,102300.02
2023-01-28T16:17:52.659Z,102306.75
2023-01-28T16:20:28.159Z,102300.87
2023-01-28T16:23:03.368Z,102304.52
2023-01-28T16:25:35.926Z,102304.27
2023-01-28T16:28:04.064Z,102313.81
2023-01-28T16:30:32.020Z,102316.62
2023-01-28T16:33:00.004Z,102309.30
2023-01-28T16:35:41.781Z,102313.81
2023-01-28T16:38:20.008Z,102314.95
2023-01-28T16:40:48.165Z,102314.95
2023-01-28T16:43:16.709Z,102325.88
2023-01-28T16:45:45.999Z,102326.50
2023-01-28T16:48:14.085Z,102317.51
2023-01-28T16:50:42.443Z,102321.70
2023-01-28T16:53:27.416Z,102328.52
2023-01-28T16:55:56.183Z,102330.72
2023-01-28T16:58:25.278Z,102322.77
2023-01-28T17:00:54.450Z,102334.05
2023-01-28T17:03:22.303Z,102328.69
2023-01-28T17:05:50.108Z,102333.46
2023-01-28T17:08:18.258Z,102334.94
2023-01-28T17:10:46.223Z,102341.41
2023-01-28T17:13:14.075Z,102341.41
2023-01-28T17:15:43.920Z,102340.55
2023-01-28T17:18:12.552Z,102340.30
2023-01-28T17:20:41.633Z,102339.45
2023-01-28T17:23:10.459Z,102347.62
2023-01-28T17:25:41.359Z,102345.59
2023-01-28T17:28:09.653Z,102346.70
2023-01-28T17:30:41.215Z,102355.17
2023-01-28T17:33:09.598Z,102350.62
2023-01-28T17:35:37.465Z,102352.36
2023-01-28T17:38:06.415Z,102359.42
2023-01-28T17:40:34.328Z,102369.00
2023-01-28T17:43:02.154Z,102365.31
2023-01-28T17:45:32.500Z,102365.05
2023-01-28T17:48:00.587Z,102370.12
2023-01-28T17:50:28.563Z,102377.77
2023-01-28T17:52:57.303Z,102388.72
2023-01-28T17:55:25.675Z,102383.91
2023-01-28T17:57:53.589Z,102380.25
2023-01-28T18:00:22.157Z,102394.96
2023-01-28T18:02:53.660Z,102383.69
2023-01-28T18:05:21.845Z,102386.01
2023-01-28T18:07:51.422Z,102397.52
2023-01-28T18:10:19.443Z,102386.23
2023-01-28T18:12:47.737Z,102380.52
2023-01-28T18:15:16.037Z,102388.72
2023-01-28T18:17:44.286Z,102374.40
2023-01-28T18:20:12.456Z,102383.69
2023-01-28T18:22:40.377Z,102388.72
2023-01-28T18:25:08.616Z,102391.53
2023-01-28T18:27:36.456Z,102400.49
2023-01-28T18:30:04.381Z,102392.87
2023-01-28T18:32:32.412Z,102401.11
2023-01-28T18:35:00.220Z,102398.79
2023-01-28T18:37:28.239Z,102397.05
2023-01-28T18:39:56.108Z,102395.13
2023-01-28T18:42:23.983Z,102397.68
2023-01-28T18:44:51.865Z,102398.79
2023-01-28T18:47:19.810Z,102409.77
2023-01-28T18:49:47.647Z,102417.66
2023-01-28T18:52:15.380Z,102417.39
2023-01-28T18:54:43.221Z,102415.70
2023-01-28T18:57:11.042Z,102415.70
2023-01-28T18:59:39.390Z,102403.83
2023-01-28T19:02:07.554Z,102404.94
2023-01-28T19:04:35.381Z,102406.64
2023-01-28T19:07:03.415Z,102412.52
2023-01-28T19:09:31.165Z,102409.09
2023-01-28T19:11:59.012Z,102407.39
2023-01-28T19:14:26.754Z,102412.66
2023-01-28T19:16:54.587Z,102403.63
2023-01-28T19:19:22.350Z,102410.85
2023-01-28T19:21:50.301Z,102411.12
2023-01-28T19:24:18.226Z,102423.73
2023-01-28T19:26:46.144Z,102425.70
2023-01-28T19:29:15.791Z,102425.93
2023-01-28T19:31:44.957Z,102430.70
2023-01-28T19:34:12.989Z,102426.71
2023-01-28T19:36:41.437Z,102430.15
2023-01-28T19:39:09.677Z,102423.90
2023-01-28T19:41:37.764Z,102426.94
2023-01-28T19:44:06.115Z,102425.86
2023-01-28T19:46:34.400Z,102430.54
2023-01-28T19:49:02.218Z,102421.22
2023-01-28T19:51:30.061Z,102425.63
2023-01-28T19:53:57.981Z,102421.97
2023-01-28T19:56:28.167Z,102412.33
2023-01-28T19:58:56.013Z,102415.14
2023-01-28T20:01:27.261Z,102424.69
2023-01-28T20:03:59.915Z,102420.77
2023-01-28T20:06:28.969Z,102422.10
2023-01-28T20:08:58.983Z,102429.95
2023-01-28T20:11:26.899Z,102430.84
2023-01-28T20:13:55.840Z,102426.87
2023-01-28T20:16:27.595Z,102426.55
2023-01-28T20:19:00.540Z,102425.93
2023-01-28T20:21:29.058Z,102430.08
2023-01-28T20:23:57.600Z,102419.68
2023-01-28T20:26:27.144Z,102425.80
2023-01-28T20:28:54.934Z,102427.17
2023-01-28T20:31:22.837Z,102418.12
2023-01-28T20:33:50.754Z,102412.98
2023-01-28T20:36:18.663Z,102427.07
2023-01-28T20:38:47.359Z,102418.02
2023-01-28T20:41:21.963Z,102423.90
2023-01-28T20:43:50.307Z,102429.75
2023-01-28T20:46:21.270Z,102431.98
2023-01-28T20:48:49.372Z,102425.47
2023-01-28T20:51:18.878Z,102434.16
2023-01-28T20:53:47.227Z,102433.55
2023-01-28T20:56:15.871Z,102428.09
2023-01-28T20:58:44.789Z,102425.24
2023-01-28T21:01:24.540Z,102424.66
2023-01-28T21:03:52.373Z,102434.20
2023-01-28T21:06:20.376Z,102428.58
2023-01-28T21:08:48.210Z,102431.65
2023-01-28T21:11:16.234Z,102429.91
2023-01-28T21:13:44.104Z,102421.97
2023-01-28T21:16:11.975Z,102425.05
2023-01-28T21:18:39.775Z,102430.05
2023-01-28T21:21:28.301Z,102432.23
2023-01-28T21:23:58.832Z,102429.07
2023-01-28T21:26:27.174Z,102437.99
2023-01-28T21:28:55.108Z,102427.59
2023-01-28T21:31:24.874Z,102432.01
2023-01-28T21:33:54.210Z,102426.65
2023-01-28T21:36:22.048Z,102426.87
2023-01-28T21:38:57.791Z,102434.69
2023-01-28T21:41:25.844Z,102439.46
2023-01-28T21:43:54.863Z,102434.95
2023-01-28T21:46:26.780Z,102444.86
2023-01-28T21:48:58.612Z,102432.76
2023-01-28T21:51:46.887Z,102439.23
2023-01-28T21:54:18.870Z,102434.69
2023-01-28T21:56:47.589Z,102434.69
2023-01-28T21:59:37.404Z,102442.54
2023-01-28T22:02:11.750Z,102432.37
2023-01-28T22:04:40.915Z,102444.23
2023-01-28T22:07:10.448Z,102441.43
2023-01-28T22:09:38.839Z,102446.20
2023-01-28T22:12:09.159Z,102453.78
2023-01-28T22:14:37.736Z,102448.16
2023-01-28T22:17:06.019Z,102448.16
2023-01-28T22:19:34.069Z,102458.56
2023-01-28T22:22:02.790Z,102452.94
2023-01-28T22:24:31.732Z,102459.90
2023-01-28T22:26:59.716Z,102455.35
2023-01-28T22:29:28.058Z,102458.66
2023-01-28T22:31:56.029Z,102453.66
2023-01-28T22:34:24.109Z,102453.91
2023-01-28T22:36:52.285Z,102453.30
2023-01-28T22:39:20.393Z,102450.48
2023-01-28T22:41:48.563Z,102441.20
2023-01-28T22:44:16.544Z,102438.38
2023-01-28T22:46:44.504Z,102437.77
2023-01-28T22:49:13.176Z,102438.02
2023-01-28T22:51:41.043Z,102430.44
2023-01-28T22:54:09.261Z,102433.25
2023-01-28T22:56:37.211Z,102433.84
2023-01-28T22:59:05.345Z,102433.61
2023-01-28T23:01:33.390Z,102432.76
2023-01-28T23:04:01.321Z,102432.99
2023-01-28T23:06:29.694Z,102434.73
2023-01-28T23:08:57.637Z,102427.14
2023-01-28T23:11:29.575Z,102431.42
2023-01-28T23:14:17.447Z,102430.05
2023-01-28T23:17:03.972Z,102429.20
2023-01-28T23:19:50.604Z,102425.54
2023-01-28T23:22:41.947Z,102437.41
2023-01-28T23:25:09.895Z,102434.82
2023-01-28T23:27:37.906Z,102433.74
2023-01-28T23:30:11.018Z,102445.22
2023-01-28T23:32:43.868Z,102435.31
2023-01-28T23:35:11.800Z,102431.65
2023-01-28T23:37:39.899Z,102432.76
2023-01-28T23:40:08.311Z,102437.27
2023-01-28T23:42:36.379Z,102431.65
2023-01-28T23:45:04.452Z,102435.57
2023-01-28T23:47:32.315Z,102436.16
2023-01-28T23:50:00.559Z,102436.42
2023-01-28T23:52:28.561Z,102444.59
2023-01-28T23:54:56.822Z,102444.37
2023-01-28T23:57:24.611Z,102447.80
2023-01-28T23:59:52.479Z,102442.18
